This is the latest recevied weather packets stored in our database for station/object N3NDE. If no packets are shown the sender has not sent any weather packets the latest 1 day(s).
| Time | Temp. | Humidity | Pressure | Rain* | Wind** | Luminosity | Snow |
|---|---|---|---|---|---|---|---|
| 1778052685 | 5° C | 90% | 1014.2 hPa | 0 mm | - | 0 W/m² | - |
| 1778052080 | 5° C | 89% | 1014.6 hPa | 4.83 mm | - | 0 W/m² | - |
| 1778051474 | 5.56° C | 86% | 1014.3 hPa | 0 mm | - | 0 W/m² | - |
| 1778050567 | 6.11° C | 80% | 1014 hPa | 0 mm | - | 0 W/m² | - |
| 1778050263 | 6.11° C | 79% | 1013.7 hPa | 0 mm | - | 0 W/m² | - |
| 1778049960 | 6.11° C | 79% | 1013.5 hPa | 0 mm | - | 0 W/m² | - |
| 1778049655 | 6.11° C | 79% | 1013.4 hPa | 0 mm | - | 0 W/m² | - |
| 1778048749 | 5° C | 82% | 1013.6 hPa | 0 mm | - | 0 W/m² | - |
| 1778048141 | 4.44° C | 85% | 1013.4 hPa | 0 mm | - | 0 W/m² | - |
| 1778047839 | 4.44° C | 85% | 1013.5 hPa | 0 mm | - | 0 W/m² | - |
| 1778046628 | 3.89° C | 86% | 1013 hPa | 0 mm | - | 0 W/m² | - |
| 1778045719 | 3.33° C | 86% | 1012.9 hPa | 0 mm | - | 0 W/m² | - |
| 1778045417 | 3.33° C | 85% | 1013 hPa | 0 mm | - | 0 W/m² | - |
| 1778044813 | 3.89° C | 83% | 1013.1 hPa | 0 mm | - | 0 W/m² | - |
| 1778043904 | 4.44° C | 82% | 1012.9 hPa | 0 mm | - | 0 W/m² | - |
| 1778042994 | 5° C | 81% | 1012.9 hPa | 0 mm | - | 0 W/m² | - |
| 1778042389 | 5.56° C | 78% | 1012.9 hPa | 0 mm | - | 0 W/m² | - |
| 1778042086 | 5.56° C | 76% | 1013 hPa | 0 mm | - | 0 W/m² | - |
| 1778041784 | 5.56° C | 76% | 1012.9 hPa | 0 mm | - | 0 W/m² | - |
| 1778041483 | 6.11° C | 74% | 1012.9 hPa | 0 mm | - | 0 W/m² | - |
| 1778041181 | 6.11° C | 73% | 1012.9 hPa | 0 mm | - | 0 W/m² | - |
| 1778040879 | 6.67° C | 72% | 1012.8 hPa | 0 mm | - | 0 W/m² | - |
| 1778040273 | 6.67° C | 73% | 1012.9 hPa | 0 mm | - | 0 W/m² | - |
| 1778039969 | 7.22° C | 71% | 1013.3 hPa | 0 mm | - | 0 W/m² | - |
| 1778039363 | 6.67° C | 72% | 1012.9 hPa | 0 mm | - | 0 W/m² | - |
* Rain latest hour (hover to see other rain measurements)
** Current wind speed in m/s (hover to see current wind gust speed)